createdAt,value
2019-06-08T00:02:52.317Z,26.63
2019-06-08T00:08:07.865Z,20.50
2019-06-08T00:13:51.638Z,22.83
2019-06-08T00:18:58.645Z,24.87
2019-06-08T00:24:16.268Z,20.87
2019-06-08T00:29:30.966Z,21.33
2019-06-08T00:35:16.666Z,30.97
2019-06-08T00:40:28.358Z,26.43
2019-06-08T00:46:17.827Z,25.47
2019-06-08T00:51:33.063Z,22.60
2019-06-08T00:56:41.905Z,21.07
2019-06-08T01:01:51.991Z,27.83
2019-06-08T01:07:01.810Z,23.23
2019-06-08T01:12:14.451Z,23.57
2019-06-08T01:17:21.125Z,21.23
2019-06-08T01:22:27.878Z,26.67
2019-06-08T01:27:34.885Z,22.20
2019-06-08T01:33:16.453Z,25.07
2019-06-08T01:38:22.929Z,22.63
2019-06-08T01:44:04.986Z,23.80
2019-06-08T01:49:14.979Z,21.90
2019-06-08T01:54:22.850Z,22.07
2019-06-08T01:59:29.698Z,22.63
2019-06-08T02:05:12.348Z,21.33
2019-06-08T02:10:20.215Z,26.57
2019-06-08T02:16:09.698Z,35.17
2019-06-08T02:21:52.363Z,34.27
2019-06-08T02:27:04.683Z,31.00
2019-06-08T02:32:52.236Z,32.97
2019-06-08T02:38:02.389Z,30.53
2019-06-08T02:43:46.578Z,39.07
2019-06-08T02:49:04.605Z,35.13
2019-06-08T02:54:44.680Z,37.30
2019-06-08T02:59:55.905Z,32.57
2019-06-08T03:05:38.159Z,43.43
2019-06-08T03:10:46.360Z,44.83
2019-06-08T03:16:31.264Z,38.00
2019-06-08T03:21:47.665Z,41.47
2019-06-08T03:27:29.187Z,44.27
2019-06-08T03:32:50.857Z,37.63
2019-06-08T03:38:28.797Z,36.13
2019-06-08T03:43:37.595Z,38.57
2019-06-08T03:49:40.241Z,41.23
2019-06-08T03:54:32.916Z,42.77
2019-06-08T03:59:43.218Z,55.50
2019-06-08T04:04:51.647Z,56.20
2019-06-08T04:10:39.868Z,57.90
2019-06-08T04:15:52.817Z,57.33
2019-06-08T04:21:35.763Z,52.60
2019-06-08T04:26:45.006Z,55.83
2019-06-08T04:32:28.911Z,56.17
2019-06-08T04:37:38.322Z,55.80
2019-06-08T04:43:22.137Z,56.43
2019-06-08T04:48:32.136Z,54.50
2019-06-08T04:53:40.941Z,55.63
2019-06-08T04:58:51.502Z,53.90
2019-06-08T05:04:38.811Z,53.87
2019-06-08T05:09:49.453Z,47.27
2019-06-08T05:15:35.717Z,53.27
2019-06-08T05:20:45.021Z,49.47
2019-06-08T05:26:26.177Z,44.13
2019-06-08T05:31:32.160Z,45.33
2019-06-08T05:36:41.390Z,43.43
2019-06-08T05:41:51.445Z,42.90
2019-06-08T05:47:37.874Z,44.10
2019-06-08T05:52:44.251Z,44.50
2019-06-08T05:57:50.777Z,46.50
2019-06-08T06:02:59.202Z,42.60
2019-06-08T06:08:43.095Z,43.40
2019-06-08T06:13:52.492Z,40.50
2019-06-08T06:19:34.494Z,41.87
2019-06-08T06:24:41.729Z,40.90
2019-06-08T06:30:25.109Z,44.20
2019-06-08T06:35:34.073Z,44.20
2019-06-08T06:41:23.324Z,48.47
2019-06-08T06:47:07.470Z,37.70
2019-06-08T06:52:17.177Z,37.73
2019-06-08T06:57:25.309Z,37.17
2019-06-08T07:02:33.765Z,38.13
2019-06-08T07:07:44.076Z,40.57
2019-06-08T07:12:58.787Z,40.40
2019-06-08T07:18:48.190Z,35.10
2019-06-08T07:24:32.333Z,38.07
2019-06-08T07:29:37.307Z,33.23
2019-06-08T07:35:28.847Z,33.50
2019-06-08T07:40:34.651Z,34.07
2019-06-08T07:45:44.812Z,37.70
2019-06-08T07:51:11.480Z,31.83
2019-06-08T07:56:16.312Z,32.50
2019-06-08T08:01:58.545Z,40.27
2019-06-08T08:07:04.455Z,29.87
2019-06-08T08:12:46.975Z,36.60
2019-06-08T08:17:55.491Z,33.23
2019-06-08T08:23:38.276Z,33.37
2019-06-08T08:28:50.023Z,30.60
2019-06-08T08:34:38.166Z,31.07
2019-06-08T08:40:19.489Z,38.40
2019-06-08T08:45:24.368Z,32.90
2019-06-08T08:50:29.435Z,31.60
2019-06-08T08:55:34.406Z,26.60
2019-06-08T09:00:41.153Z,25.87
2019-06-08T09:06:28.174Z,28.83
2019-06-08T09:11:33.313Z,20.47
2019-06-08T09:17:18.314Z,17.07
2019-06-08T09:22:28.139Z,15.87
2019-06-08T09:28:15.145Z,17.47
2019-06-08T09:33:21.401Z,13.03
2019-06-08T09:39:05.327Z,13.80
2019-06-08T09:44:11.408Z,9.07
2019-06-08T09:49:18.793Z,8.00
2019-06-08T09:54:24.318Z,7.23
2019-06-08T09:59:29.337Z,5.53
2019-06-08T10:04:38.696Z,5.10
2019-06-08T10:09:47.424Z,7.93
2019-06-08T10:14:52.240Z,8.47
2019-06-08T10:20:38.427Z,6.07
2019-06-08T10:25:48.214Z,4.83
2019-06-08T10:31:38.893Z,4.53
2019-06-08T10:36:39.794Z,4.40
2019-06-08T10:42:21.062Z,1.60
2019-06-08T10:47:29.518Z,8.40
2019-06-08T10:53:16.739Z,4.90
2019-06-08T10:58:28.276Z,5.73
2019-06-08T11:03:32.506Z,7.43
2019-06-08T11:09:20.241Z,3.10
2019-06-08T11:14:28.868Z,3.13
2019-06-08T11:20:15.183Z,2.70
2019-06-08T11:25:20.204Z,2.27
2019-06-08T11:31:02.100Z,4.50
2019-06-08T11:36:12.159Z,5.17
2019-06-08T11:41:55.660Z,7.70
2019-06-08T11:47:00.558Z,2.87
2019-06-08T11:52:06.739Z,2.67
2019-06-08T11:57:12.992Z,5.63
2019-06-08T12:02:21.608Z,4.80
2019-06-08T12:08:04.316Z,13.83
2019-06-08T12:13:14.436Z,6.53
2019-06-08T12:18:58.428Z,1.97
2019-06-08T12:24:06.306Z,8.23
2019-06-08T12:29:54.998Z,6.03
2019-06-08T12:35:40.325Z,4.90
2019-06-08T12:40:45.334Z,5.97
2019-06-08T12:46:27.980Z,4.97
2019-06-08T12:51:37.532Z,2.67
2019-06-08T12:57:14.924Z,2.00
2019-06-08T13:02:28.011Z,1.73
2019-06-08T13:08:21.500Z,8.07
2019-06-08T13:14:08.331Z,3.10
2019-06-08T13:19:20.067Z,3.53
2019-06-08T13:25:15.680Z,3.77
2019-06-08T13:30:15.431Z,3.60
2019-06-08T13:35:54.952Z,7.50
2019-06-08T13:41:01.964Z,2.53
2019-06-08T13:46:49.945Z,2.50
2019-06-08T13:51:55.330Z,2.00
2019-06-08T13:57:08.636Z,3.93
2019-06-08T14:02:50.148Z,2.13
2019-06-08T14:08:04.783Z,3.77
2019-06-08T14:13:09.856Z,4.00
2019-06-08T14:24:26.177Z,5.80
2019-06-08T14:30:08.596Z,2.27
2019-06-08T14:35:20.567Z,3.63
2019-06-08T14:41:07.664Z,3.10
2019-06-08T14:46:24.377Z,2.10
2019-06-08T14:51:32.588Z,5.33
2019-06-08T14:57:19.266Z,7.60
2019-06-08T15:02:34.204Z,6.57
2019-06-08T15:07:50.999Z,2.33
2019-06-08T15:13:40.513Z,2.27
2019-06-08T15:18:51.466Z,2.27
2019-06-08T15:24:37.633Z,2.63
2019-06-08T15:29:47.767Z,4.07
2019-06-08T15:35:32.875Z,2.23
2019-06-08T15:40:42.899Z,3.50
2019-06-08T15:45:55.186Z,8.37
2019-06-08T15:51:04.665Z,2.83
2019-06-08T15:56:09.878Z,2.17
2019-06-08T16:01:17.272Z,5.70
2019-06-08T16:06:31.730Z,4.17
2019-06-08T16:11:42.520Z,4.93
2019-06-08T16:17:23.077Z,6.27
2019-06-08T16:22:29.924Z,6.00
2019-06-08T16:27:35.986Z,5.50
2019-06-08T16:32:42.217Z,4.93
2019-06-08T16:38:30.309Z,5.67
2019-06-08T16:43:35.374Z,7.10
2019-06-08T16:48:45.122Z,8.40
2019-06-08T16:54:35.096Z,4.70
2019-06-08T16:59:44.475Z,4.10
2019-06-08T17:04:49.571Z,5.10
2019-06-08T17:10:32.602Z,8.37
2019-06-08T17:16:08.275Z,3.93
2019-06-08T17:21:15.291Z,2.33
2019-06-08T17:27:02.016Z,7.77
2019-06-08T17:32:07.083Z,6.10
2019-06-08T17:37:12.158Z,26.77
2019-06-08T17:42:17.079Z,5.50
2019-06-08T17:48:02.247Z,6.13
2019-06-08T17:53:07.244Z,30.03
2019-06-08T17:58:12.275Z,8.60
2019-06-08T18:03:17.436Z,9.27
2019-06-08T18:08:38.821Z,5.53
2019-06-08T18:14:22.726Z,5.13
2019-06-08T18:19:30.804Z,4.33
2019-06-08T18:25:17.998Z,4.90
2019-06-08T18:31:03.980Z,12.17
2019-06-08T18:36:09.318Z,11.80
2019-06-08T18:41:17.679Z,31.57
2019-06-08T18:46:27.215Z,6.97
2019-06-08T18:51:33.600Z,4.70
2019-06-08T18:56:42.255Z,9.97
2019-06-08T19:01:49.963Z,7.90
2019-06-08T19:07:01.400Z,8.00
2019-06-08T19:12:53.440Z,8.47
2019-06-08T19:17:58.682Z,10.33
2019-06-08T19:23:43.364Z,9.03
2019-06-08T19:28:54.060Z,6.00
2019-06-08T19:34:07.701Z,5.73
2019-06-08T19:39:17.952Z,7.13
2019-06-08T19:45:05.238Z,7.97
2019-06-08T19:50:09.364Z,10.77
2019-06-08T19:55:54.084Z,16.07
2019-06-08T20:01:01.351Z,17.83
2019-06-08T20:06:08.492Z,10.60
2019-06-08T20:11:17.288Z,12.17
2019-06-08T20:16:23.935Z,14.63
2019-06-08T20:21:30.933Z,9.90
2019-06-08T20:27:17.235Z,9.40
2019-06-08T20:32:23.875Z,15.60
2019-06-08T20:37:29.809Z,14.80
2019-06-08T20:42:37.850Z,16.53
2019-06-08T20:48:19.967Z,19.50
2019-06-08T20:53:24.999Z,20.03
2019-06-08T20:59:08.170Z,22.33
2019-06-08T21:04:14.747Z,29.83
2019-06-08T21:09:19.679Z,16.37
2019-06-08T21:14:30.709Z,13.47
2019-06-08T21:20:19.989Z,18.23
2019-06-08T21:25:28.079Z,17.10
2019-06-08T21:31:17.759Z,13.77
2019-06-08T21:36:29.134Z,11.63
2019-06-08T21:41:38.048Z,17.73
2019-06-08T21:46:48.704Z,14.67
2019-06-08T21:52:31.577Z,23.87
2019-06-08T21:57:40.450Z,12.17
2019-06-08T22:02:47.969Z,14.73
2019-06-08T22:07:54.377Z,16.80
2019-06-08T22:13:39.033Z,24.63
2019-06-08T22:18:44.747Z,23.07
2019-06-08T22:24:27.724Z,12.47
2019-06-08T22:29:38.195Z,15.47
2019-06-08T22:34:51.492Z,17.43
2019-06-08T22:40:04.004Z,18.73
2019-06-08T22:45:48.242Z,15.77
2019-06-08T22:50:57.298Z,19.87
2019-06-08T22:56:37.905Z,21.23
2019-06-08T23:01:43.129Z,19.23
2019-06-08T23:06:48.254Z,17.57
2019-06-08T23:11:55.121Z,20.20
2019-06-08T23:17:38.613Z,21.53
2019-06-08T23:22:43.390Z,13.97
2019-06-08T23:28:24.953Z,21.83
2019-06-08T23:33:38.741Z,21.53
2019-06-08T23:39:23.801Z,20.73
2019-06-08T23:44:29.182Z,20.80
2019-06-08T23:50:11.705Z,18.07
2019-06-08T23:55:18.241Z,19.00
